Fulton County Airport Brown Field
KFTY : now visible

Airfield :











YOU CAN JOIN US ON...

 
LOGIN :

Register | Disclaimer

   EN    FR    IT 

 









Legend :    VFR   Marginal VFR   IFR   Intensive IFR   Very Intensive IFR
Visi :
Ceiling :
>= 8 km
>= 3000ft
5 to 8 km
1000 to 3000 ft
1500m to 5 km
500 to 1000 ft
800 to 1500m
200 to 500 ft
< 800m
< 200 ft
Symbols :   Thunderstorms  Fog  Heavy snow  Heavy precipitations  Wind > 20 kt






- Airport Elevation : 841 ft


KFTY - Fulton County Brown Field

CURRENT METAR :
  • 141853Z 00000KT 10SM FEW027 SCT034 28/21 A2995 RMK AO2 SLP131 T02830211

EXPIRED METARs :
  • 141816Z VRB04KT 10SM SCT025 BKN031 28/22 A2997 RMK AO2 LTG DSNT SW T02830217
  • 141753Z VRB03KT 10SM SCT021 BKN026 27/21 A2998 RMK AO2 SLP144 T02720211 10278 20222 58009
  • 141733Z 13003KT 10SM SCT019 27/22 A2999 RMK AO2 T02670217
  • 141653Z 20005KT 10SM SCT016 BKN024 26/21 A3001 RMK AO2 SLP153 T02610211

TAF KFTY
Valid from the 14 at 18:00 until the 15 at 18:00 UTC


141742Z 1418/1518 21005KT P6SM VCSH BKN035
TEMPO 1418/1422 VRB15G25KT 4SM TSRA BR OVC025CB
FM150200 18003KT P6SM VCSH SCT035 BKN060
FM150700 19003KT P6SM VCSH SCT007 BKN015
FM150900 20003KT 5SM BR VCSH BKN003
FM151500 25004KT P6SM VCSH BKN020
KZTL FIR / North America



MET'MAP, your aeronautical weather chart ! - Copyright ORBIFLY December 2007 - Disclaimer

ORBIFLY MET'MAP TEAM :

Programming & Development : Alexandra Zaïnal
Concept & original design : Baudouin d'Aumeries
Assistance for programming : Marc-Olivier Méhu
Technical & hardware support : Manuel Goepfert

Contact : metmap@orbifly.com




SOURCES & CREDITS :

   NOAA       Earth
Advisory